Welkom op de website van Weerstation Hoek van Holland.

Onweer radar Meer informatie blitzortung!


Regen radar Meer informatie rain snow radar



METAR rapporten vliegvelden

   
EHRD - Rotterdam International Airport, NL
Afstand tot: Oost 31 km
Gewijzigd: 01-04-2020 00:25
Helder  
Helder  
   Wind: NNO 9.3 km/h
Wind: NNO 9.3 km/h
Temperatuur: 2°C
Voelt als: -1°C
Dauwpunt: -2°C
Vochtigheid: 75%
Barometer: 1028 hPa
Bewolking: Clear
Zicht: meer dan 10 km
Bewolking: Helder ft
EHRD 312225Z AUTO 03005KT 350V050 9999 NCD 02/M02 Q1028 NOSIG
EHAM - Amsterdam Schiphol, NL
Afstand tot: Noord 17 km
Gewijzigd: 01-04-2020 00:55
Helder  
Helder  
   Wind: NNO 7.4 km/h
Wind: NNO 7.4 km/h
Temperatuur: 2°C
Voelt als: 0°C
Dauwpunt: -2°C
Vochtigheid: 75%
Barometer: 1028 hPa
Zicht: meer dan 10 km
Bewolking: Helder ft
EHAM 312255Z 03004KT CAVOK 02/M02 Q1028 NOSIG
EBAW - Antwerpen/Deurne, B
Afstand tot: Zuid 138 km
Gewijzigd: 01-04-2020 00:50
Helder  
Helder  
   Wind: NNO 11.1 km/h
Wind: NNO 11.1 km/h
Temperatuur: 3°C
Voelt als: 0°C
Dauwpunt: -2°C
Vochtigheid: 70%
Barometer: 1027 hPa
Zicht: meer dan 10 km
Bewolking: Helder ft
EBAW 312250Z AUTO 03006KT CAVOK 03/M02 Q1027
EHEH - Eindhoven, NL
Afstand tot: OZO 140 km
Gewijzigd: 01-04-2020 00:55
Helder  
Helder  
   Wind: Noorden 7.4 km/h
Wind: Noorden 7.4 km/h
Temperatuur: 1°C
Voelt als: -1°C
Dauwpunt: -2°C
Vochtigheid: 81%
Barometer: 1027 hPa
Bewolking: Clear
Zicht: meer dan 10 km
Bewolking: Helder ft
EHEH 312255Z AUTO 01004KT 9999 NCD 01/M02 Q1027 BLU
  

Script ontwikkeld door  Saratoga-weather.org Aangepast voor de template door  Weerstation Leuven

Apparatuur in gebruik:

Weerstation
Davis VP2

Weerprogramma
Meteobridge

Weercomputer
meteobridge met meteostick

Webleverancier
Strato

Davis VP2

Meteobridge

meteobridge met meteostick

Strato